sensor_id;sensor_type;location;lat;lon;timestamp;P1;durP1;ratioP1;P2;durP2;ratioP2
3465;SDS011;1747;48.884;9.160;2024-01-10T00:01:59;15.68;;;7.18;;
3465;SDS011;1747;48.884;9.160;2024-01-10T00:04:28;19.45;;;7.65;;
3465;SDS011;1747;48.884;9.160;2024-01-10T00:06:55;18.10;;;7.30;;
3465;SDS011;1747;48.884;9.160;2024-01-10T00:09:22;16.55;;;7.07;;
3465;SDS011;1747;48.884;9.160;2024-01-10T00:11:49;17.73;;;7.15;;
3465;SDS011;1747;48.884;9.160;2024-01-10T00:14:16;19.27;;;7.03;;
3465;SDS011;1747;48.884;9.160;2024-01-10T00:16:42;17.38;;;7.10;;
3465;SDS011;1747;48.884;9.160;2024-01-10T00:19:09;16.25;;;7.13;;
3465;SDS011;1747;48.884;9.160;2024-01-10T00:21:38;16.13;;;6.75;;
3465;SDS011;1747;48.884;9.160;2024-01-10T00:24:05;15.32;;;7.07;;
3465;SDS011;1747;48.884;9.160;2024-01-10T00:26:32;18.45;;;7.25;;
3465;SDS011;1747;48.884;9.160;2024-01-10T00:28:58;16.55;;;7.18;;
3465;SDS011;1747;48.884;9.160;2024-01-10T00:31:25;18.73;;;7.60;;
3465;SDS011;1747;48.884;9.160;2024-01-10T00:33:52;17.05;;;7.28;;
3465;SDS011;1747;48.884;9.160;2024-01-10T00:36:19;15.02;;;7.40;;
3465;SDS011;1747;48.884;9.160;2024-01-10T00:38:47;17.88;;;7.40;;
3465;SDS011;1747;48.884;9.160;2024-01-10T00:41:14;17.38;;;6.95;;
3465;SDS011;1747;48.884;9.160;2024-01-10T00:43:41;16.63;;;6.97;;
3465;SDS011;1747;48.884;9.160;2024-01-10T00:46:08;18.83;;;7.90;;
3465;SDS011;1747;48.884;9.160;2024-01-10T00:48:35;16.05;;;7.07;;
3465;SDS011;1747;48.884;9.160;2024-01-10T00:51:02;16.70;;;7.63;;
3465;SDS011;1747;48.884;9.160;2024-01-10T00:53:33;14.85;;;7.00;;
3465;SDS011;1747;48.884;9.160;2024-01-10T00:56:01;15.68;;;7.22;;
3465;SDS011;1747;48.884;9.160;2024-01-10T00:58:28;16.17;;;7.22;;
3465;SDS011;1747;48.884;9.160;2024-01-10T01:00:55;14.25;;;7.13;;
3465;SDS011;1747;48.884;9.160;2024-01-10T01:03:22;18.52;;;7.53;;
3465;SDS011;1747;48.884;9.160;2024-01-10T01:05:49;16.52;;;7.47;;
3465;SDS011;1747;48.884;9.160;2024-01-10T01:08:16;18.45;;;8.98;;
3465;SDS011;1747;48.884;9.160;2024-01-10T01:10:43;16.33;;;7.95;;
3465;SDS011;1747;48.884;9.160;2024-01-10T01:13:11;15.55;;;6.90;;
3465;SDS011;1747;48.884;9.160;2024-01-10T01:15:38;14.20;;;7.00;;
3465;SDS011;1747;48.884;9.160;2024-01-10T01:18:05;16.33;;;7.72;;
3465;SDS011;1747;48.884;9.160;2024-01-10T01:20:35;17.35;;;7.53;;
3465;SDS011;1747;48.884;9.160;2024-01-10T01:23:01;20.13;;;7.53;;
3465;SDS011;1747;48.884;9.160;2024-01-10T01:25:28;15.43;;;6.72;;
3465;SDS011;1747;48.884;9.160;2024-01-10T01:27:55;18.88;;;7.70;;
3465;SDS011;1747;48.884;9.160;2024-01-10T01:30:24;16.52;;;7.55;;
3465;SDS011;1747;48.884;9.160;2024-01-10T01:32:51;17.73;;;7.18;;
3465;SDS011;1747;48.884;9.160;2024-01-10T01:35:18;14.93;;;6.82;;
3465;SDS011;1747;48.884;9.160;2024-01-10T01:37:47;15.43;;;6.97;;
3465;SDS011;1747;48.884;9.160;2024-01-10T01:40:14;14.27;;;7.10;;
3465;SDS011;1747;48.884;9.160;2024-01-10T01:42:42;16.20;;;7.82;;
3465;SDS011;1747;48.884;9.160;2024-01-10T01:45:10;16.23;;;7.82;;
3465;SDS011;1747;48.884;9.160;2024-01-10T01:47:39;17.45;;;7.28;;
3465;SDS011;1747;48.884;9.160;2024-01-10T01:50:07;16.17;;;7.45;;
3465;SDS011;1747;48.884;9.160;2024-01-10T01:52:34;15.55;;;7.25;;
3465;SDS011;1747;48.884;9.160;2024-01-10T01:55:02;17.00;;;7.32;;
3465;SDS011;1747;48.884;9.160;2024-01-10T01:57:31;16.75;;;7.18;;
3465;SDS011;1747;48.884;9.160;2024-01-10T01:59:58;17.20;;;6.70;;
3465;SDS011;1747;48.884;9.160;2024-01-10T02:02:25;16.25;;;7.78;;
3465;SDS011;1747;48.884;9.160;2024-01-10T02:04:56;19.40;;;7.05;;
3465;SDS011;1747;48.884;9.160;2024-01-10T02:07:23;23.63;;;8.05;;
3465;SDS011;1747;48.884;9.160;2024-01-10T02:09:50;19.48;;;8.05;;
3465;SDS011;1747;48.884;9.160;2024-01-10T02:12:17;15.98;;;6.95;;
3465;SDS011;1747;48.884;9.160;2024-01-10T02:14:44;14.05;;;6.65;;
3465;SDS011;1747;48.884;9.160;2024-01-10T02:17:11;17.52;;;7.90;;
3465;SDS011;1747;48.884;9.160;2024-01-10T02:19:38;17.65;;;7.30;;
3465;SDS011;1747;48.884;9.160;2024-01-10T02:22:06;15.18;;;6.97;;
3465;SDS011;1747;48.884;9.160;2024-01-10T02:24:33;18.20;;;7.45;;
3465;SDS011;1747;48.884;9.160;2024-01-10T02:27:01;16.45;;;6.57;;
3465;SDS011;1747;48.884;9.160;2024-01-10T02:29:29;18.25;;;7.18;;
3465;SDS011;1747;48.884;9.160;2024-01-10T02:31:56;17.13;;;7.75;;
3465;SDS011;1747;48.884;9.160;2024-01-10T02:34:23;18.50;;;7.40;;
3465;SDS011;1747;48.884;9.160;2024-01-10T02:36:50;11.93;;;6.53;;
3465;SDS011;1747;48.884;9.160;2024-01-10T02:39:17;19.90;;;8.10;;
3465;SDS011;1747;48.884;9.160;2024-01-10T02:41:44;15.85;;;6.82;;
3465;SDS011;1747;48.884;9.160;2024-01-10T02:44:12;15.57;;;6.85;;
3465;SDS011;1747;48.884;9.160;2024-01-10T02:46:39;15.48;;;7.53;;
3465;SDS011;1747;48.884;9.160;2024-01-10T02:49:06;15.20;;;6.95;;
3465;SDS011;1747;48.884;9.160;2024-01-10T02:51:34;17.98;;;6.80;;
3465;SDS011;1747;48.884;9.160;2024-01-10T02:54:01;15.73;;;7.47;;
3465;SDS011;1747;48.884;9.160;2024-01-10T02:56:28;20.35;;;7.50;;
3465;SDS011;1747;48.884;9.160;2024-01-10T02:58:54;21.38;;;7.50;;
3465;SDS011;1747;48.884;9.160;2024-01-10T03:01:23;20.83;;;8.27;;
3465;SDS011;1747;48.884;9.160;2024-01-10T03:03:49;14.45;;;7.55;;
3465;SDS011;1747;48.884;9.160;2024-01-10T03:06:16;13.60;;;6.28;;
3465;SDS011;1747;48.884;9.160;2024-01-10T03:08:43;15.75;;;6.93;;
3465;SDS011;1747;48.884;9.160;2024-01-10T03:11:10;17.90;;;7.82;;
3465;SDS011;1747;48.884;9.160;2024-01-10T03:13:37;17.38;;;7.18;;
3465;SDS011;1747;48.884;9.160;2024-01-10T03:16:04;19.35;;;7.25;;
3465;SDS011;1747;48.884;9.160;2024-01-10T03:18:32;20.50;;;7.60;;
3465;SDS011;1747;48.884;9.160;2024-01-10T03:20:59;16.20;;;7.20;;
3465;SDS011;1747;48.884;9.160;2024-01-10T03:23:26;17.35;;;7.95;;
3465;SDS011;1747;48.884;9.160;2024-01-10T03:25:53;16.33;;;7.55;;
3465;SDS011;1747;48.884;9.160;2024-01-10T03:28:20;17.73;;;7.32;;
3465;SDS011;1747;48.884;9.160;2024-01-10T03:30:47;19.30;;;7.47;;
3465;SDS011;1747;48.884;9.160;2024-01-10T03:33:14;17.95;;;7.05;;
3465;SDS011;1747;48.884;9.160;2024-01-10T03:35:42;17.92;;;7.63;;
3465;SDS011;1747;48.884;9.160;2024-01-10T03:38:10;21.48;;;8.20;;
3465;SDS011;1747;48.884;9.160;2024-01-10T03:40:37;20.15;;;8.13;;
3465;SDS011;1747;48.884;9.160;2024-01-10T03:43:03;15.85;;;6.97;;
3465;SDS011;1747;48.884;9.160;2024-01-10T03:45:30;14.15;;;6.60;;
3465;SDS011;1747;48.884;9.160;2024-01-10T03:47:57;19.35;;;7.90;;
3465;SDS011;1747;48.884;9.160;2024-01-10T03:50:24;18.75;;;8.02;;
3465;SDS011;1747;48.884;9.160;2024-01-10T03:52:52;17.05;;;7.43;;
3465;SDS011;1747;48.884;9.160;2024-01-10T03:55:19;14.88;;;7.15;;
3465;SDS011;1747;48.884;9.160;2024-01-10T03:57:46;16.05;;;7.55;;
3465;SDS011;1747;48.884;9.160;2024-01-10T04:00:13;19.05;;;7.72;;
3465;SDS011;1747;48.884;9.160;2024-01-10T04:02:40;19.42;;;8.13;;
3465;SDS011;1747;48.884;9.160;2024-01-10T04:05:07;16.63;;;7.35;;
3465;SDS011;1747;48.884;9.160;2024-01-10T04:07:37;16.20;;;8.02;;
3465;SDS011;1747;48.884;9.160;2024-01-10T04:10:08;23.25;;;8.02;;
3465;SDS011;1747;48.884;9.160;2024-01-10T04:12:35;15.95;;;7.50;;
3465;SDS011;1747;48.884;9.160;2024-01-10T04:15:02;17.08;;;7.70;;
3465;SDS011;1747;48.884;9.160;2024-01-10T04:17:30;16.73;;;7.25;;
3465;SDS011;1747;48.884;9.160;2024-01-10T04:19:56;17.15;;;7.88;;
3465;SDS011;1747;48.884;9.160;2024-01-10T04:22:23;16.05;;;7.13;;
3465;SDS011;1747;48.884;9.160;2024-01-10T04:24:50;16.35;;;7.60;;
3465;SDS011;1747;48.884;9.160;2024-01-10T04:27:19;18.27;;;8.25;;
3465;SDS011;1747;48.884;9.160;2024-01-10T04:29:46;19.02;;;7.38;;
3465;SDS011;1747;48.884;9.160;2024-01-10T04:32:13;16.25;;;7.63;;
3465;SDS011;1747;48.884;9.160;2024-01-10T04:34:39;18.50;;;7.82;;
3465;SDS011;1747;48.884;9.160;2024-01-10T04:37:06;16.65;;;7.88;;
3465;SDS011;1747;48.884;9.160;2024-01-10T04:39:33;15.32;;;7.95;;
3465;SDS011;1747;48.884;9.160;2024-01-10T04:42:00;15.45;;;7.90;;
3465;SDS011;1747;48.884;9.160;2024-01-10T04:44:30;19.80;;;7.70;;
3465;SDS011;1747;48.884;9.160;2024-01-10T04:46:57;19.65;;;8.15;;
3465;SDS011;1747;48.884;9.160;2024-01-10T04:49:24;21.35;;;8.13;;
3465;SDS011;1747;48.884;9.160;2024-01-10T04:51:50;17.50;;;7.63;;
3465;SDS011;1747;48.884;9.160;2024-01-10T04:54:17;15.10;;;7.68;;
3465;SDS011;1747;48.884;9.160;2024-01-10T04:56:45;18.15;;;8.05;;
3465;SDS011;1747;48.884;9.160;2024-01-10T04:59:12;16.50;;;7.93;;
3465;SDS011;1747;48.884;9.160;2024-01-10T05:01:40;18.35;;;7.97;;
3465;SDS011;1747;48.884;9.160;2024-01-10T05:04:07;17.30;;;8.25;;
3465;SDS011;1747;48.884;9.160;2024-01-10T05:06:34;20.00;;;8.40;;
3465;SDS011;1747;48.884;9.160;2024-01-10T05:09:01;16.02;;;7.50;;
3465;SDS011;1747;48.884;9.160;2024-01-10T05:11:29;18.88;;;8.05;;
3465;SDS011;1747;48.884;9.160;2024-01-10T05:13:56;17.80;;;7.80;;
3465;SDS011;1747;48.884;9.160;2024-01-10T05:16:23;14.95;;;7.38;;
3465;SDS011;1747;48.884;9.160;2024-01-10T05:18:52;17.10;;;7.63;;
3465;SDS011;1747;48.884;9.160;2024-01-10T05:21:19;18.98;;;7.95;;
3465;SDS011;1747;48.884;9.160;2024-01-10T05:23:45;17.08;;;7.75;;
3465;SDS011;1747;48.884;9.160;2024-01-10T05:26:12;18.92;;;8.15;;
3465;SDS011;1747;48.884;9.160;2024-01-10T05:28:39;16.30;;;7.75;;
3465;SDS011;1747;48.884;9.160;2024-01-10T05:31:06;17.77;;;8.20;;
3465;SDS011;1747;48.884;9.160;2024-01-10T05:33:33;21.27;;;8.27;;
3465;SDS011;1747;48.884;9.160;2024-01-10T05:36:01;18.05;;;8.00;;
3465;SDS011;1747;48.884;9.160;2024-01-10T05:38:28;16.45;;;7.30;;
3465;SDS011;1747;48.884;9.160;2024-01-10T05:40:55;18.15;;;8.10;;
3465;SDS011;1747;48.884;9.160;2024-01-10T05:43:21;16.10;;;7.85;;
3465;SDS011;1747;48.884;9.160;2024-01-10T05:45:48;17.40;;;7.18;;
3465;SDS011;1747;48.884;9.160;2024-01-10T05:48:16;14.48;;;7.13;;
3465;SDS011;1747;48.884;9.160;2024-01-10T05:50:43;18.17;;;7.75;;
3465;SDS011;1747;48.884;9.160;2024-01-10T05:53:11;19.15;;;8.45;;
3465;SDS011;1747;48.884;9.160;2024-01-10T05:55:42;21.90;;;8.52;;
3465;SDS011;1747;48.884;9.160;2024-01-10T05:58:09;18.75;;;7.53;;
3465;SDS011;1747;48.884;9.160;2024-01-10T06:00:36;17.95;;;7.68;;
3465;SDS011;1747;48.884;9.160;2024-01-10T06:03:03;17.05;;;7.70;;
3465;SDS011;1747;48.884;9.160;2024-01-10T06:05:30;18.30;;;7.72;;
3465;SDS011;1747;48.884;9.160;2024-01-10T06:07:57;18.65;;;8.02;;
3465;SDS011;1747;48.884;9.160;2024-01-10T06:10:26;16.75;;;7.43;;
3465;SDS011;1747;48.884;9.160;2024-01-10T06:12:54;21.33;;;9.05;;
3465;SDS011;1747;48.884;9.160;2024-01-10T06:15:24;19.70;;;8.20;;
3465;SDS011;1747;48.884;9.160;2024-01-10T06:17:56;21.83;;;9.82;;
3465;SDS011;1747;48.884;9.160;2024-01-10T06:20:23;19.90;;;8.50;;
3465;SDS011;1747;48.884;9.160;2024-01-10T06:22:50;18.77;;;8.68;;
3465;SDS011;1747;48.884;9.160;2024-01-10T06:25:17;17.48;;;8.20;;
3465;SDS011;1747;48.884;9.160;2024-01-10T06:27:45;18.52;;;8.25;;
3465;SDS011;1747;48.884;9.160;2024-01-10T06:30:12;19.13;;;8.20;;
3465;SDS011;1747;48.884;9.160;2024-01-10T06:32:39;19.92;;;8.20;;
3465;SDS011;1747;48.884;9.160;2024-01-10T06:35:06;15.68;;;8.00;;
3465;SDS011;1747;48.884;9.160;2024-01-10T06:37:34;19.95;;;8.43;;
3465;SDS011;1747;48.884;9.160;2024-01-10T06:40:01;16.55;;;7.63;;
3465;SDS011;1747;48.884;9.160;2024-01-10T06:42:29;17.67;;;8.40;;
3465;SDS011;1747;48.884;9.160;2024-01-10T06:44:57;20.85;;;8.10;;
3465;SDS011;1747;48.884;9.160;2024-01-10T06:47:24;19.23;;;8.38;;
3465;SDS011;1747;48.884;9.160;2024-01-10T06:49:51;15.52;;;7.43;;
3465;SDS011;1747;48.884;9.160;2024-01-10T06:52:18;21.60;;;8.15;;
3465;SDS011;1747;48.884;9.160;2024-01-10T06:54:45;16.77;;;7.90;;
3465;SDS011;1747;48.884;9.160;2024-01-10T06:57:12;19.15;;;7.90;;
3465;SDS011;1747;48.884;9.160;2024-01-10T06:59:39;23.25;;;8.45;;
3465;SDS011;1747;48.884;9.160;2024-01-10T07:02:07;18.98;;;8.10;;
3465;SDS011;1747;48.884;9.160;2024-01-10T07:04:36;18.73;;;8.23;;
3465;SDS011;1747;48.884;9.160;2024-01-10T07:07:03;18.90;;;8.13;;
3465;SDS011;1747;48.884;9.160;2024-01-10T07:09:30;20.02;;;7.97;;
3465;SDS011;1747;48.884;9.160;2024-01-10T07:11:57;18.90;;;7.85;;
3465;SDS011;1747;48.884;9.160;2024-01-10T07:14:24;20.27;;;7.40;;
3465;SDS011;1747;48.884;9.160;2024-01-10T07:16:51;16.58;;;7.80;;
3465;SDS011;1747;48.884;9.160;2024-01-10T07:19:23;20.02;;;8.63;;
3465;SDS011;1747;48.884;9.160;2024-01-10T07:21:50;18.35;;;8.52;;
3465;SDS011;1747;48.884;9.160;2024-01-10T07:24:19;21.58;;;9.18;;
3465;SDS011;1747;48.884;9.160;2024-01-10T07:26:46;22.02;;;8.45;;
3465;SDS011;1747;48.884;9.160;2024-01-10T07:29:13;17.77;;;7.82;;
3465;SDS011;1747;48.884;9.160;2024-01-10T07:31:40;18.23;;;8.40;;
3465;SDS011;1747;48.884;9.160;2024-01-10T07:34:06;21.55;;;7.93;;
3465;SDS011;1747;48.884;9.160;2024-01-10T07:36:40;16.77;;;8.13;;
3465;SDS011;1747;48.884;9.160;2024-01-10T07:39:08;17.98;;;7.97;;
3465;SDS011;1747;48.884;9.160;2024-01-10T07:41:35;15.85;;;7.80;;
3465;SDS011;1747;48.884;9.160;2024-01-10T07:44:02;20.42;;;8.30;;
3465;SDS011;1747;48.884;9.160;2024-01-10T07:46:29;23.00;;;8.77;;
3465;SDS011;1747;48.884;9.160;2024-01-10T07:48:56;19.23;;;7.95;;
3465;SDS011;1747;48.884;9.160;2024-01-10T07:51:25;17.83;;;7.57;;
3465;SDS011;1747;48.884;9.160;2024-01-10T07:53:53;21.35;;;8.68;;
3465;SDS011;1747;48.884;9.160;2024-01-10T07:56:20;21.02;;;8.15;;
3465;SDS011;1747;48.884;9.160;2024-01-10T07:58:47;14.40;;;6.90;;
3465;SDS011;1747;48.884;9.160;2024-01-10T08:01:14;19.13;;;9.25;;
3465;SDS011;1747;48.884;9.160;2024-01-10T08:03:41;17.45;;;8.15;;
3465;SDS011;1747;48.884;9.160;2024-01-10T08:06:08;19.92;;;7.95;;
3465;SDS011;1747;48.884;9.160;2024-01-10T08:08:37;20.83;;;8.40;;
3465;SDS011;1747;48.884;9.160;2024-01-10T08:11:05;22.23;;;8.60;;
3465;SDS011;1747;48.884;9.160;2024-01-10T08:13:32;16.50;;;8.25;;
3465;SDS011;1747;48.884;9.160;2024-01-10T08:15:59;19.48;;;8.15;;
3465;SDS011;1747;48.884;9.160;2024-01-10T08:18:26;22.23;;;8.27;;
3465;SDS011;1747;48.884;9.160;2024-01-10T08:20:53;18.13;;;7.82;;
3465;SDS011;1747;48.884;9.160;2024-01-10T08:23:20;19.85;;;8.60;;
3465;SDS011;1747;48.884;9.160;2024-01-10T08:25:47;22.33;;;7.97;;
3465;SDS011;1747;48.884;9.160;2024-01-10T08:28:15;19.08;;;8.75;;
3465;SDS011;1747;48.884;9.160;2024-01-10T08:30:42;21.90;;;8.80;;
3465;SDS011;1747;48.884;9.160;2024-01-10T08:33:09;20.55;;;9.30;;
3465;SDS011;1747;48.884;9.160;2024-01-10T08:35:35;19.25;;;8.82;;
3465;SDS011;1747;48.884;9.160;2024-01-10T08:38:04;20.70;;;8.77;;
3465;SDS011;1747;48.884;9.160;2024-01-10T08:40:32;23.75;;;9.20;;
3465;SDS011;1747;48.884;9.160;2024-01-10T08:42:59;23.00;;;9.70;;
3465;SDS011;1747;48.884;9.160;2024-01-10T08:45:27;22.90;;;9.95;;
3465;SDS011;1747;48.884;9.160;2024-01-10T08:47:54;21.55;;;9.05;;
3465;SDS011;1747;48.884;9.160;2024-01-10T08:50:23;20.10;;;9.65;;
3465;SDS011;1747;48.884;9.160;2024-01-10T08:52:50;19.98;;;9.65;;
3465;SDS011;1747;48.884;9.160;2024-01-10T08:55:17;18.85;;;8.45;;
3465;SDS011;1747;48.884;9.160;2024-01-10T08:57:44;17.63;;;9.55;;
3465;SDS011;1747;48.884;9.160;2024-01-10T09:00:11;20.48;;;9.68;;
3465;SDS011;1747;48.884;9.160;2024-01-10T09:02:42;22.88;;;10.23;;
3465;SDS011;1747;48.884;9.160;2024-01-10T09:05:09;19.38;;;9.57;;
3465;SDS011;1747;48.884;9.160;2024-01-10T09:07:36;21.90;;;10.07;;
3465;SDS011;1747;48.884;9.160;2024-01-10T09:10:04;21.75;;;10.55;;
3465;SDS011;1747;48.884;9.160;2024-01-10T09:12:32;26.33;;;10.77;;
3465;SDS011;1747;48.884;9.160;2024-01-10T09:14:59;26.45;;;11.05;;
3465;SDS011;1747;48.884;9.160;2024-01-10T09:17:27;22.33;;;10.52;;
3465;SDS011;1747;48.884;9.160;2024-01-10T09:19:56;25.33;;;10.93;;
3465;SDS011;1747;48.884;9.160;2024-01-10T09:22:22;24.83;;;10.98;;
3465;SDS011;1747;48.884;9.160;2024-01-10T09:24:50;31.90;;;11.52;;
3465;SDS011;1747;48.884;9.160;2024-01-10T09:27:16;26.90;;;12.13;;
3465;SDS011;1747;48.884;9.160;2024-01-10T09:29:43;27.90;;;11.90;;
3465;SDS011;1747;48.884;9.160;2024-01-10T09:32:10;26.58;;;11.90;;
3465;SDS011;1747;48.884;9.160;2024-01-10T09:34:37;27.25;;;11.43;;
3465;SDS011;1747;48.884;9.160;2024-01-10T09:37:05;21.13;;;11.05;;
3465;SDS011;1747;48.884;9.160;2024-01-10T09:39:32;27.85;;;12.25;;
3465;SDS011;1747;48.884;9.160;2024-01-10T09:41:59;25.33;;;12.15;;
3465;SDS011;1747;48.884;9.160;2024-01-10T09:44:27;25.63;;;11.60;;
3465;SDS011;1747;48.884;9.160;2024-01-10T09:46:54;24.70;;;11.80;;
3465;SDS011;1747;48.884;9.160;2024-01-10T09:49:21;31.52;;;11.35;;
3465;SDS011;1747;48.884;9.160;2024-01-10T09:51:48;24.40;;;11.85;;
3465;SDS011;1747;48.884;9.160;2024-01-10T09:54:18;30.60;;;13.02;;
3465;SDS011;1747;48.884;9.160;2024-01-10T09:56:47;27.60;;;12.30;;
3465;SDS011;1747;48.884;9.160;2024-01-10T09:59:14;24.80;;;12.07;;
3465;SDS011;1747;48.884;9.160;2024-01-10T10:01:41;25.10;;;12.65;;
3465;SDS011;1747;48.884;9.160;2024-01-10T10:04:09;25.85;;;12.85;;
3465;SDS011;1747;48.884;9.160;2024-01-10T10:06:38;33.00;;;13.38;;
3465;SDS011;1747;48.884;9.160;2024-01-10T10:09:05;25.83;;;12.38;;
3465;SDS011;1747;48.884;9.160;2024-01-10T10:11:35;26.88;;;12.00;;
3465;SDS011;1747;48.884;9.160;2024-01-10T10:14:13;28.63;;;14.18;;
3465;SDS011;1747;48.884;9.160;2024-01-10T10:16:41;28.35;;;12.88;;
3465;SDS011;1747;48.884;9.160;2024-01-10T10:19:08;24.38;;;12.13;;
3465;SDS011;1747;48.884;9.160;2024-01-10T10:21:36;31.70;;;13.60;;
3465;SDS011;1747;48.884;9.160;2024-01-10T10:24:04;30.38;;;13.15;;
3465;SDS011;1747;48.884;9.160;2024-01-10T10:26:32;27.70;;;13.00;;
3465;SDS011;1747;48.884;9.160;2024-01-10T10:29:01;28.83;;;13.82;;
3465;SDS011;1747;48.884;9.160;2024-01-10T10:31:29;30.45;;;13.38;;
3465;SDS011;1747;48.884;9.160;2024-01-10T10:33:57;34.20;;;13.80;;
3465;SDS011;1747;48.884;9.160;2024-01-10T10:36:26;30.35;;;13.80;;
3465;SDS011;1747;48.884;9.160;2024-01-10T10:38:53;32.60;;;12.63;;
3465;SDS011;1747;48.884;9.160;2024-01-10T10:41:20;30.73;;;14.18;;
3465;SDS011;1747;48.884;9.160;2024-01-10T10:43:49;25.95;;;13.23;;
3465;SDS011;1747;48.884;9.160;2024-01-10T10:46:20;30.98;;;13.60;;
3465;SDS011;1747;48.884;9.160;2024-01-10T10:48:53;28.75;;;13.05;;
3465;SDS011;1747;48.884;9.160;2024-01-10T10:51:24;31.17;;;13.80;;
3465;SDS011;1747;48.884;9.160;2024-01-10T10:53:54;29.02;;;13.48;;
3465;SDS011;1747;48.884;9.160;2024-01-10T10:56:22;32.10;;;14.75;;
3465;SDS011;1747;48.884;9.160;2024-01-10T10:58:51;31.48;;;14.77;;
3465;SDS011;1747;48.884;9.160;2024-01-10T11:01:19;28.60;;;13.40;;
3465;SDS011;1747;48.884;9.160;2024-01-10T11:03:47;31.92;;;14.18;;
3465;SDS011;1747;48.884;9.160;2024-01-10T11:06:14;32.40;;;15.77;;
3465;SDS011;1747;48.884;9.160;2024-01-10T11:08:44;29.92;;;14.48;;
3465;SDS011;1747;48.884;9.160;2024-01-10T11:11:18;30.63;;;15.32;;
3465;SDS011;1747;48.884;9.160;2024-01-10T11:13:56;28.13;;;14.73;;
3465;SDS011;1747;48.884;9.160;2024-01-10T11:16:37;30.05;;;14.20;;
3465;SDS011;1747;48.884;9.160;2024-01-10T11:19:35;31.83;;;14.85;;
3465;SDS011;1747;48.884;9.160;2024-01-10T11:22:23;32.10;;;15.07;;
3465;SDS011;1747;48.884;9.160;2024-01-10T11:25:09;31.75;;;14.73;;
3465;SDS011;1747;48.884;9.160;2024-01-10T11:27:37;35.03;;;14.25;;
3465;SDS011;1747;48.884;9.160;2024-01-10T11:30:06;32.47;;;15.35;;
3465;SDS011;1747;48.884;9.160;2024-01-10T11:32:34;33.47;;;15.57;;
3465;SDS011;1747;48.884;9.160;2024-01-10T11:35:03;30.77;;;15.13;;
3465;SDS011;1747;48.884;9.160;2024-01-10T11:37:38;31.35;;;15.50;;
3465;SDS011;1747;48.884;9.160;2024-01-10T11:40:07;31.83;;;15.25;;
3465;SDS011;1747;48.884;9.160;2024-01-10T11:42:40;29.05;;;14.77;;
3465;SDS011;1747;48.884;9.160;2024-01-10T11:45:09;30.83;;;14.48;;
3465;SDS011;1747;48.884;9.160;2024-01-10T11:47:42;33.25;;;15.35;;
3465;SDS011;1747;48.884;9.160;2024-01-10T11:50:09;30.50;;;15.02;;
3465;SDS011;1747;48.884;9.160;2024-01-10T11:52:46;32.40;;;15.43;;
3465;SDS011;1747;48.884;9.160;2024-01-10T11:58:13;35.47;;;19.58;;
3465;SDS011;1747;48.884;9.160;2024-01-10T12:00:41;34.15;;;17.65;;
3465;SDS011;1747;48.884;9.160;2024-01-10T12:03:09;31.58;;;15.88;;
3465;SDS011;1747;48.884;9.160;2024-01-10T12:05:37;28.60;;;15.10;;
3465;SDS011;1747;48.884;9.160;2024-01-10T12:08:04;31.77;;;15.70;;
3465;SDS011;1747;48.884;9.160;2024-01-10T12:10:32;29.67;;;14.73;;
3465;SDS011;1747;48.884;9.160;2024-01-10T12:13:03;30.02;;;14.93;;
3465;SDS011;1747;48.884;9.160;2024-01-10T12:15:30;33.47;;;15.60;;
3465;SDS011;1747;48.884;9.160;2024-01-10T12:17:58;31.20;;;15.73;;
3465;SDS011;1747;48.884;9.160;2024-01-10T12:20:26;31.77;;;15.50;;
3465;SDS011;1747;48.884;9.160;2024-01-10T12:22:53;33.67;;;15.35;;
3465;SDS011;1747;48.884;9.160;2024-01-10T12:25:20;31.77;;;15.38;;
3465;SDS011;1747;48.884;9.160;2024-01-10T12:27:47;28.58;;;15.05;;
3465;SDS011;1747;48.884;9.160;2024-01-10T12:30:15;32.75;;;15.50;;
3465;SDS011;1747;48.884;9.160;2024-01-10T12:32:43;32.83;;;15.60;;
3465;SDS011;1747;48.884;9.160;2024-01-10T12:35:11;30.50;;;15.63;;
3465;SDS011;1747;48.884;9.160;2024-01-10T12:37:41;30.92;;;16.38;;
3465;SDS011;1747;48.884;9.160;2024-01-10T12:40:09;29.08;;;14.95;;
3465;SDS011;1747;48.884;9.160;2024-01-10T12:42:36;30.15;;;16.27;;
3465;SDS011;1747;48.884;9.160;2024-01-10T12:45:04;35.53;;;16.80;;
3465;SDS011;1747;48.884;9.160;2024-01-10T12:47:31;33.08;;;16.55;;
3465;SDS011;1747;48.884;9.160;2024-01-10T12:50:01;32.65;;;15.68;;
3465;SDS011;1747;48.884;9.160;2024-01-10T12:52:29;32.10;;;16.50;;
3465;SDS011;1747;48.884;9.160;2024-01-10T12:54:56;32.95;;;17.00;;
3465;SDS011;1747;48.884;9.160;2024-01-10T12:57:23;35.63;;;17.40;;
3465;SDS011;1747;48.884;9.160;2024-01-10T12:59:50;29.48;;;15.90;;
3465;SDS011;1747;48.884;9.160;2024-01-10T13:02:17;31.58;;;16.88;;
3465;SDS011;1747;48.884;9.160;2024-01-10T13:04:44;31.85;;;16.73;;
3465;SDS011;1747;48.884;9.160;2024-01-10T13:07:11;27.45;;;16.17;;
3465;SDS011;1747;48.884;9.160;2024-01-10T13:09:39;27.60;;;15.88;;
3465;SDS011;1747;48.884;9.160;2024-01-10T13:12:06;33.58;;;17.33;;
3465;SDS011;1747;48.884;9.160;2024-01-10T13:14:34;33.55;;;17.95;;
3465;SDS011;1747;48.884;9.160;2024-01-10T13:17:01;35.05;;;17.25;;
3465;SDS011;1747;48.884;9.160;2024-01-10T13:19:29;32.05;;;17.55;;
3465;SDS011;1747;48.884;9.160;2024-01-10T13:21:56;37.47;;;17.50;;
3465;SDS011;1747;48.884;9.160;2024-01-10T13:24:23;30.63;;;16.80;;
3465;SDS011;1747;48.884;9.160;2024-01-10T13:26:51;32.25;;;17.60;;
3465;SDS011;1747;48.884;9.160;2024-01-10T13:29:22;30.10;;;16.73;;
3465;SDS011;1747;48.884;9.160;2024-01-10T13:31:57;30.50;;;16.83;;
3465;SDS011;1747;48.884;9.160;2024-01-10T13:34:25;28.00;;;16.23;;
3465;SDS011;1747;48.884;9.160;2024-01-10T13:36:53;28.20;;;15.88;;
3465;SDS011;1747;48.884;9.160;2024-01-10T13:39:24;31.27;;;17.02;;
3465;SDS011;1747;48.884;9.160;2024-01-10T13:42:06;32.08;;;16.63;;
3465;SDS011;1747;48.884;9.160;2024-01-10T13:44:42;30.98;;;17.30;;
3465;SDS011;1747;48.884;9.160;2024-01-10T13:47:24;31.13;;;16.15;;
3465;SDS011;1747;48.884;9.160;2024-01-10T13:50:10;31.83;;;16.27;;
3465;SDS011;1747;48.884;9.160;2024-01-10T13:52:37;28.95;;;16.20;;
3465;SDS011;1747;48.884;9.160;2024-01-10T13:55:05;33.60;;;16.58;;
3465;SDS011;1747;48.884;9.160;2024-01-10T13:57:36;31.30;;;16.95;;
3465;SDS011;1747;48.884;9.160;2024-01-10T14:00:07;29.52;;;15.85;;
3465;SDS011;1747;48.884;9.160;2024-01-10T14:02:37;25.40;;;13.02;;
3465;SDS011;1747;48.884;9.160;2024-01-10T14:05:11;29.77;;;15.75;;
3465;SDS011;1747;48.884;9.160;2024-01-10T14:07:39;29.25;;;16.27;;
3465;SDS011;1747;48.884;9.160;2024-01-10T14:10:09;32.17;;;16.92;;
3465;SDS011;1747;48.884;9.160;2024-01-10T14:12:41;31.48;;;16.63;;
3465;SDS011;1747;48.884;9.160;2024-01-10T14:15:11;30.27;;;16.23;;
3465;SDS011;1747;48.884;9.160;2024-01-10T14:17:38;32.13;;;17.13;;
3465;SDS011;1747;48.884;9.160;2024-01-10T14:20:06;32.08;;;16.50;;
3465;SDS011;1747;48.884;9.160;2024-01-10T14:22:34;33.08;;;16.50;;
3465;SDS011;1747;48.884;9.160;2024-01-10T14:25:01;32.55;;;16.73;;
3465;SDS011;1747;48.884;9.160;2024-01-10T14:27:30;29.27;;;16.80;;
3465;SDS011;1747;48.884;9.160;2024-01-10T14:29:59;31.67;;;17.17;;
3465;SDS011;1747;48.884;9.160;2024-01-10T14:32:28;32.20;;;16.75;;
3465;SDS011;1747;48.884;9.160;2024-01-10T14:34:58;34.00;;;17.48;;
3465;SDS011;1747;48.884;9.160;2024-01-10T14:37:25;33.17;;;16.52;;
3465;SDS011;1747;48.884;9.160;2024-01-10T14:39:52;33.28;;;16.77;;
3465;SDS011;1747;48.884;9.160;2024-01-10T14:42:19;34.63;;;16.75;;
3465;SDS011;1747;48.884;9.160;2024-01-10T14:44:46;37.20;;;16.80;;
3465;SDS011;1747;48.884;9.160;2024-01-10T14:47:14;27.65;;;15.93;;
3465;SDS011;1747;48.884;9.160;2024-01-10T14:49:41;32.28;;;15.93;;
3465;SDS011;1747;48.884;9.160;2024-01-10T14:52:08;35.70;;;16.20;;
3465;SDS011;1747;48.884;9.160;2024-01-10T14:54:35;32.60;;;16.45;;
3465;SDS011;1747;48.884;9.160;2024-01-10T14:57:02;34.45;;;17.27;;
3465;SDS011;1747;48.884;9.160;2024-01-10T14:59:29;30.65;;;15.93;;
3465;SDS011;1747;48.884;9.160;2024-01-10T15:01:56;32.35;;;16.17;;
3465;SDS011;1747;48.884;9.160;2024-01-10T15:04:24;33.67;;;17.00;;